North Liberty, Iowa
Current Conditions -  °F | °C
As of 7:19 PM on Saturday 27 Dec 2014 (Local Time) from KIOW Reporting Station
Broken Clouds Broken Clouds  
Wind Chill: 18°   Ceiling: 1900
Heat Index: 26°   Visibility: 10mi
Dew Point: 21°   Wind: 8mph
Humidity: 81%   Direction: 280°W
Pressure: 30.21"   Gusts: NA
Location:  41.75°N, 91.6°W
Report Text: KIOW 280119Z AUTO 28007KT 10SM BKN019 M03/M06 A3021 RMK AO2 T10331061
Loading
Personal Weather Stations






























Interactive Weather Map New forecast layout! Learn more

10-Day Weather Forecast

Advertisements
Track Severe Weather on mobile